Central Oregon RPC :: LAKEVIEW, OR B

liberation: 2021-05-01  08:00     latitude: 42.211122     longitude: -120.355558 143 birds
# LOFT PRING MILES ARRIVAL SPEED ToWin
1 ROCKY TOP AU16-CORP-7701 145.004 2021-05-01 11:06:24.236 1369.111 00:00:00
2 ROCKY TOP AU16-CORP-7143 145.004 2021-05-01 11:06:24.640 1369.062 00:00:00
3 ROCKY TOP AU19-CORP-4400 145.004 2021-05-01 11:06:49.676 1366.004 00:00:25
4 ROCKY TOP AU19-CORP-4477 145.004 2021-05-01 11:06:50.615 1365.890 00:00:26
5 ROCKY TOP AU19-CORP-4473 145.004 2021-05-01 11:07:04.744 1364.171 00:00:41
6 ROCKY TOP AU19-CORP-4405 145.004 2021-05-01 11:07:06.337 1363.977 00:00:42
7 ROCKY TOP AU19-CORP-4474 145.004 2021-05-01 11:07:07.205 1363.871 00:00:43
8 ROCKY TOP AU18-CORP-3351 145.004 2021-05-01 11:07:53.587 1358.260 00:01:29
9 LUCAS CRAMER AU20-WPC-1528 169.348 2021-05-01 11:39:42.886 1356.544 00:02:01
10 ROCKY TOP AU18-CORP-3354 145.004 2021-05-01 11:08:08.523 1356.463 00:01:44
11 LUCAS CRAMER AU19-LKC-4661 169.348 2021-05-01 11:39:44.669 1356.361 00:02:03
12 LUCAS CRAMER AU20-FAM-0007 169.348 2021-05-01 11:39:46.990 1356.122 00:02:05
13 ROCKY TOP AU19-ARPU-29012 145.004 2021-05-01 11:08:21.434 1354.913 00:01:57
14 LUCAS CRAMER AU20-AA-11668 169.348 2021-05-01 11:40:09.124 1353.849 00:02:27
15 ROCKY TOP AU20-CORP-4476 145.004 2021-05-01 11:08:42.434 1352.400 00:02:18
16 LUCAS CRAMER AU20-TBW-20076 169.348 2021-05-01 11:40:23.376 1352.390 00:02:41
17 LUCAS CRAMER AU18-CORP-2247 169.348 2021-05-01 11:40:23.486 1352.379 00:02:42
18 ROCKY TOP AU19-CORP-4435 145.004 2021-05-01 11:08:43.933 1352.221 00:02:20
19 LUCAS CRAMER CU20-CRPU-11568 169.348 2021-05-01 11:40:27.367 1351.982 00:02:45
20 LUCAS CRAMER AU20-CALA-0003 169.348 2021-05-01 11:40:28.486 1351.868 00:02:47
21 LUCAS CRAMER AU19-LKC-4674 169.348 2021-05-01 11:40:30.664 1351.645 00:02:49
22 LUCAS CRAMER AU20-PUEB-20507 169.348 2021-05-01 11:40:31.026 1351.608 00:02:49
23 LUCAS CRAMER AU20-TBW-20080 169.348 2021-05-01 11:40:34.374 1351.266 00:02:52
24 LUCAS CRAMER AU20-ARPU-22504 169.348 2021-05-01 11:40:35.482 1351.153 00:02:54
25 TOPIGEONUSA AU17-CAPT-0054 152.123 2021-05-01 11:18:10.305 1351.029 00:02:37
26 ROCKY TOP AU17-OTC-0317 145.004 2021-05-01 11:08:56.160 1350.763 00:02:32
27 LUCAS CRAMER AU20-RAC-2818 169.348 2021-05-01 11:40:39.744 1350.718 00:02:58
28 LUCAS CRAMER AU20-CORP-4245 169.348 2021-05-01 11:40:41.983 1350.490 00:03:00
29 LUCAS CRAMER AU20-GUTZ-0219 169.348 2021-05-01 11:40:46.744 1350.005 00:03:05
30 TOPIGEONUSA AU19-CORP-5124 152.123 2021-05-01 11:18:21.561 1349.751 00:02:48
31 TOPIGEONUSA AU19-CORP-5136 152.123 2021-05-01 11:18:45.073 1347.090 00:03:12
32 STEELE LOFT AU19-JEDD-1973 152.432 2021-05-01 11:19:46.451 1342.917 00:03:49
33 STEELE LOFT AU19-CORP-4024 152.432 2021-05-01 11:19:48.183 1342.723 00:03:51
34 STEELE LOFT AU20-CORP-5088 152.432 2021-05-01 11:20:02.463 1341.125 00:04:05
35 STEELE LOFT AU20-CORP-5043 152.432 2021-05-01 11:20:09.001 1340.395 00:04:12
36 STEELE LOFT AU20-CORP-5018 152.432 2021-05-01 11:20:11.302 1340.138 00:04:14
37 TOPIGEONUSA AU19-CORP-5140 152.123 2021-05-01 11:19:59.970 1338.682 00:04:27
38 RUETER FAMILY LOFT AU19-CORP-5477 178.741 2021-05-01 11:55:04.753 1338.202 00:05:18
39 TOPIGEONUSA AU18-CORP-4272 152.123 2021-05-01 11:20:09.932 1337.572 00:04:37
40 ROCKY TOP AU18-CORP-3310 145.004 2021-05-01 11:11:21.102 1333.710 00:04:57
41 ROCKY TOP AU18-CORP-3353 145.004 2021-05-01 11:12:12.207 1327.800 00:05:48
42 ROCKY TOP AU18-CORP-3371 145.004 2021-05-01 11:12:20.526 1326.843 00:05:56
43 ROCKY TOP AU18-CORP-3300 145.004 2021-05-01 11:17:16.292 1293.688 00:10:52
44 STEELE LOFT AU19-CORP-4004 152.432 2021-05-01 11:29:39.188 1279.638 00:13:42
45 TOPIGEONUSA AU19-CORP-4912 152.123 2021-05-01 11:31:04.950 1268.394 00:15:32
46 TIM GRAVES AU19-CORP-4239 143.484 2021-05-01 11:19:38.323 1264.948 00:15:11
47 TIM GRAVES AU17-CORP-2034 143.484 2021-05-01 11:19:41.050 1264.660 00:15:14
48 STEELE LOFT AU20-CORP-5011 152.432 2021-05-01 11:32:19.985 1263.487 00:16:23
49 LUCAS CRAMER AU20-PLAT-18413 169.348 2021-05-01 11:56:36.797 1259.662 00:18:55
50 TOPIGEONUSA AU19-CORP-4908 152.123 2021-05-01 11:33:48.475 1252.226 00:18:15
51 ROCKY TOP AU20-CORP-4400 145.004 2021-05-01 11:23:56.120 1251.415 00:17:32
52 ROCKY TOP AU19-CORP-4454 145.004 2021-05-01 11:24:32.836 1247.671 00:18:09
53 LUCAS CRAMER AU20-DBJ-1929 169.348 2021-05-01 11:59:38.028 1243.784 00:21:56
54 RUETER FAMILY LOFT AU19-CORP-5310 178.741 2021-05-01 12:14:27.722 1236.269 00:24:41
55 TOPIGEONUSA AU18-CORP-4205 152.123 2021-05-01 11:36:59.832 1233.821 00:21:27
56 TOPIGEONUSA AU16-CORP-7994 152.123 2021-05-01 11:37:16.929 1232.203 00:21:44
57 TIM GRAVES AU17-CORP-0834 143.484 2021-05-01 11:25:11.056 1230.760 00:20:44
58 RUETER FAMILY LOFT AU19-CORP-5344 178.741 2021-05-01 12:15:51.312 1229.537 00:26:05
59 AMERICAN LOFT AU16-CORP-7557 148.79 2021-05-01 11:33:27.204 1226.829 00:22:11
60 TOPIGEONUSA AU20-CORP-4377 152.123 2021-05-01 11:40:15.858 1215.520 00:24:43
61 AMERICAN LOFT AU19-CORP-4746 148.79 2021-05-01 11:35:33.511 1214.848 00:24:17
62 AMERICAN LOFT AU19-CORP-4735 148.79 2021-05-01 11:35:42.809 1213.975 00:24:27
63 AMERICAN LOFT AU18-CORP-2550 148.79 2021-05-01 11:35:55.575 1212.779 00:24:39
64 RUETER FAMILY LOFT AU19-CORP-5330 178.741 2021-05-01 12:20:10.778 1209.101 00:30:24
65 AMERICAN LOFT AU19-CORP-4638 148.79 2021-05-01 11:37:57.751 1201.449 00:26:42
66 LUCAS CRAMER AU17-CORP-1074 169.348 2021-05-01 12:15:01.629 1168.710 00:37:20
67 LUCAS CRAMER AU20-ARPU-56021 169.348 2021-05-01 12:15:18.865 1167.395 00:37:37
68 LUCAS CRAMER AU20-LIAN-2034 169.348 2021-05-01 12:15:46.135 1165.320 00:38:04
69 LUCAS CRAMER AU20-KFLY-2005 169.348 2021-05-01 12:23:23.063 1131.627 00:45:41
70 LUCAS CRAMER AU20-NEM-0634 169.348 2021-05-01 12:23:50.009 1129.700 00:46:08
71 LUCAS CRAMER AU20-ARPU-30169 169.348 2021-05-01 12:23:55.872 1129.282 00:46:14
72 RUETER FAMILY LOFT AU19-CORP-5377 178.741 2021-05-01 12:41:13.707 1118.605 00:51:27
73 LUCAS CRAMER AU20-GSWC-0755 169.348 2021-05-01 12:26:30.954 1118.330 00:48:49
74 AMERICAN LOFT AU17-CORP-0078 148.79 2021-05-01 11:54:14.159 1117.979 00:42:58
75 TIM GRAVES AU16-CORP-6702 143.484 2021-05-01 11:46:01.084 1117.312 00:41:34
76 LUCAS CRAMER AU20-GWC-0059 169.348 2021-05-01 12:28:21.039 1110.684 00:50:39
77 ROCKY TOP AU18-CORP-3313 145.004 2021-05-01 11:53:08.802 1094.623 00:46:45
78 ROCKY TOP AU18-CORP-3343 145.004 2021-05-01 11:55:27.264 1083.895 00:49:03
79 LUCAS CRAMER AU20-NANZ-0042 169.348 2021-05-01 12:35:21.068 1082.446 00:57:39
80 RUETER FAMILY LOFT AU19-CORP-5438 178.741 2021-05-01 12:51:50.424 1077.930 01:02:04
81 AMERICAN LOFT AU19-CORP-4708 148.79 2021-05-01 12:03:13.627 1076.652 00:51:57
82 AMERICAN LOFT AU19-CORP-4635 148.79 2021-05-01 12:03:14.774 1076.567 00:51:59
83 AMERICAN LOFT AU19-CORP-4665 148.79 2021-05-01 12:03:19.194 1076.241 00:52:03
84 AMERICAN LOFT AU19-CORP-4673 148.79 2021-05-01 12:05:53.617 1064.976 00:54:37
85 TIM GRAVES AU13-TCW-3849 143.484 2021-05-01 11:58:50.618 1057.314 00:54:24
86 LUCAS CRAMER AU20-GRPC-0547 169.348 2021-05-01 12:44:46.612 1046.619 01:07:05
87 LUCAS CRAMER AU20-AA-16309 169.348 2021-05-01 12:44:49.741 1046.427 01:07:08
88 RUETER FAMILY LOFT AU19-CORP-5408 178.741 2021-05-01 13:03:55.190 1035.087 01:14:09
89 STEELE LOFT AU19-CORP-4009 152.432 2021-05-01 12:20:23.089 1030.322 01:04:26
90 STEELE LOFT AU20-CORP-5002 152.432 2021-05-01 12:20:32.559 1029.698 01:04:35
91 TOPIGEONUSA AU20-CORP-4861 152.123 2021-05-01 12:20:09.549 1029.123 01:04:36
92 RUETER FAMILY LOFT AU19-CORP-5447 178.741 2021-05-01 13:06:44.629 1025.558 01:16:58
93 STEELE LOFT AU20-CORP-5012 152.432 2021-05-01 12:24:39.955 1013.656 01:08:43
94 ROCKY TOP AU17-CORP-0798 145.004 2021-05-01 12:12:16.046 1011.656 01:05:52
95 TOPIGEONUSA AU20-CORP-4841 152.123 2021-05-01 12:25:00.591 1010.286 01:09:27
96 AMERICAN LOFT AU19-CORP-4654 148.79 2021-05-01 12:19:13.478 1010.208 01:07:57
97 AMERICAN LOFT AU17-CORP-0096 148.79 2021-05-01 12:19:16.911 1009.985 01:08:01
98 AMERICAN LOFT AU20-CORP-5554 148.79 2021-05-01 12:19:27.100 1009.324 01:08:11
99 TIM GRAVES AU16-AUB-0602 143.484 2021-05-01 12:14:04.740 993.914 01:09:38
100 TIM GRAVES AU17-FHI-1014 143.484 2021-05-01 12:14:06.618 993.791 01:09:40
101 AMERICAN LOFT AU20-CORP-5573 148.79 2021-05-01 12:24:05.406 991.597 01:12:49
102 AMERICAN LOFT AU20-CORP-5415 148.79 2021-05-01 12:24:15.929 990.939 01:13:00
103 TOPIGEONUSA AU19-CORP-4938 152.123 2021-05-01 12:31:31.257 986.059 01:15:58
104 AMERICAN LOFT AU19-CORP-4683 148.79 2021-05-01 12:28:56.738 973.694 01:17:41
105 TOPIGEONUSA AU20-CORP-4333 152.123 2021-05-01 12:37:04.405 966.299 01:21:31
106 RUETER FAMILY LOFT AU19-CORP-5455 178.741 2021-05-01 13:31:07.299 950.054 01:41:21
107 RUETER FAMILY LOFT AU19-CORP-5367 178.741 2021-05-01 13:42:48.988 917.644 01:53:03
108 RUETER FAMILY LOFT AU18-CORP-2684 178.741 2021-05-01 13:42:52.393 917.492 01:53:06
109 AMERICAN LOFT AU19-CORP-4693 148.79 2021-05-01 12:46:56.395 912.633 01:35:40
110 AMERICAN LOFT AU19-CORP-4774 148.79 2021-05-01 12:47:29.473 910.883 01:36:13
111 STEELE LOFT AU15-CORP-3873 152.432 2021-05-01 13:00:31.625 892.699 01:44:34
112 AMERICAN LOFT AU19-CORP-4643 148.79 2021-05-01 13:19:12.475 820.377 02:07:56
113 LUCAS CRAMER AU20-CORP-4264 169.348 2021-05-01 14:13:30.538 797.980 02:35:49
114 AMERICAN LOFT AU16-CORP-7444 148.79 2021-05-01 13:48:20.033 751.781 02:37:04
115 TOPIGEONUSA AU20-CORP-4325 152.123 2021-05-01 13:58:27.307 746.916 02:42:54
116 LUCAS CRAMER AU20-HADJ-0025 169.348 2021-05-01 14:51:42.356 723.946 03:14:00
117 LUCAS CRAMER AU18-CORP-2201 169.348 2021-05-01 14:54:03.194 719.842 03:16:21
118 RUETER FAMILY LOFT AU19-CORP-5358 178.741 2021-05-01 15:18:34.514 717.285 03:28:48
119 RUETER FAMILY LOFT AU19-CORP-5458 178.741 2021-05-01 15:36:55.249 688.486 03:47:09
120 TOPIGEONUSA AU19-CORP-4991 152.123 2021-05-01 14:36:59.776 674.404 03:21:26
121 AMERICAN LOFT AU20-CORP-5485 148.79 2021-05-01 14:53:15.397 633.676 03:41:59
122 AMERICAN LOFT AU17-CORP-0062 148.79 2021-05-01 14:56:18.082 629.042 03:45:02
123 AMERICAN LOFT AU16-CORP-7539 148.79 2021-05-01 14:59:53.048 623.674 03:48:37
124 AMERICAN LOFT AU19-CORP-4751 148.79 2021-05-01 15:17:18.773 598.818 04:06:03
125 AMERICAN LOFT AU19-CORP-4620 148.79 2021-05-01 15:22:26.866 591.868 04:11:11
126 RUETER FAMILY LOFT AU19-CORP-5331 178.741 2021-05-01 17:00:10.977 582.365 05:10:25
127 LUCAS CRAMER AU20-ZA-7650 169.348 2021-05-01 17:02:48.900 549.087 05:25:07
128 TOPIGEONUSA AU20-CORP-4868 152.123 2021-05-01 16:34:03.083 520.835 05:18:30
129 TOPIGEONUSA AU19-CORP-4913 152.123 2021-05-01 16:34:12.864 520.670 05:18:40
130 AMERICAN LOFT AU15-CORP-3683 148.79 2021-05-01 16:25:10.766 518.372 05:13:55
131 TIM GRAVES AU17-FHI-0202 143.484 2021-05-01 17:38:17.786 436.684 06:33:51
132 TOPIGEONUSA AU18-CORP-3173 152.123 2021-05-02 07:58:32.417 295.877 11:49:20
133 AMERICAN LOFT AU19-CORP-4698 148.79 2021-05-02 09:59:42.131 255.222 13:54:47
134 STEELE LOFT AU20-CORP-5041 152.432 2021-05-02 12:50:55.548 224.075 16:41:20
135 LUCAS CRAMER AU19-CORP-4110 169.348 2021-05-02 17:25:28.757 202.505 20:54:08
AMERICAN LOFT AU18-CORP-2817 0 0000-00-00 00:00:00.000 0.000 00:00:00
RUETER FAMILY LOFT AU19-CORP-5335 0 0000-00-00 00:00:00.000 0.000 00:00:00
RUETER FAMILY LOFT AU20-CORP-4572 0 0000-00-00 00:00:00.000 0.000 00:00:00
TIM GRAVES AU16-FHI-0243 0 0000-00-00 00:00:00.000 0.000 00:00:00
TIM GRAVES AU20-CORP-4710 0 0000-00-00 00:00:00.000 0.000 00:00:00
TOPIGEONUSA AU20-CORP-4328 0 0000-00-00 00:00:00.000 0.000 00:00:00
TOPIGEONUSA AU20-CORP-4330 0 0000-00-00 00:00:00.000 0.000 00:00:00
TOPIGEONUSA AU20-CORP-4331 0 0000-00-00 00:00:00.000 0.000 00:00:00